sensor_id;sensor_type;location;lat;lon;timestamp;P1;durP1;ratioP1;P2;durP2;ratioP2
17153;SDS011;8692;52.164;7.558;2023-09-07T00:02:17;2.83;;;2.23;;
17153;SDS011;8692;52.164;7.558;2023-09-07T00:05:00;2.40;;;2.20;;
17153;SDS011;8692;52.164;7.558;2023-09-07T00:07:28;2.30;;;2.20;;
17153;SDS011;8692;52.164;7.558;2023-09-07T00:09:56;2.40;;;2.20;;
17153;SDS011;8692;52.164;7.558;2023-09-07T00:12:24;2.50;;;2.30;;
17153;SDS011;8692;52.164;7.558;2023-09-07T00:14:53;3.17;;;2.37;;
17153;SDS011;8692;52.164;7.558;2023-09-07T00:17:22;2.53;;;2.30;;
17153;SDS011;8692;52.164;7.558;2023-09-07T00:19:51;2.60;;;2.40;;
17153;SDS011;8692;52.164;7.558;2023-09-07T00:22:19;2.40;;;2.13;;
17153;SDS011;8692;52.164;7.558;2023-09-07T00:24:47;2.93;;;2.40;;
17153;SDS011;8692;52.164;7.558;2023-09-07T00:27:15;2.80;;;2.60;;
17153;SDS011;8692;52.164;7.558;2023-09-07T00:29:43;2.17;;;2.07;;
17153;SDS011;8692;52.164;7.558;2023-09-07T00:32:11;2.77;;;2.57;;
17153;SDS011;8692;52.164;7.558;2023-09-07T00:34:40;2.87;;;2.27;;
17153;SDS011;8692;52.164;7.558;2023-09-07T00:37:08;2.67;;;2.47;;
17153;SDS011;8692;52.164;7.558;2023-09-07T00:39:36;2.70;;;2.50;;
17153;SDS011;8692;52.164;7.558;2023-09-07T00:42:04;2.67;;;2.47;;
17153;SDS011;8692;52.164;7.558;2023-09-07T00:44:32;2.50;;;2.30;;
17153;SDS011;8692;52.164;7.558;2023-09-07T00:47:00;2.23;;;2.13;;
17153;SDS011;8692;52.164;7.558;2023-09-07T00:49:29;2.57;;;2.37;;
17153;SDS011;8692;52.164;7.558;2023-09-07T00:51:59;2.83;;;2.40;;
17153;SDS011;8692;52.164;7.558;2023-09-07T00:54:27;2.40;;;2.20;;
17153;SDS011;8692;52.164;7.558;2023-09-07T00:56:56;3.53;;;2.60;;
17153;SDS011;8692;52.164;7.558;2023-09-07T00:59:24;2.83;;;2.20;;
17153;SDS011;8692;52.164;7.558;2023-09-07T01:01:53;2.60;;;2.40;;
17153;SDS011;8692;52.164;7.558;2023-09-07T01:04:21;2.60;;;2.40;;
17153;SDS011;8692;52.164;7.558;2023-09-07T01:06:50;2.87;;;2.53;;
17153;SDS011;8692;52.164;7.558;2023-09-07T01:09:25;2.40;;;2.30;;
17153;SDS011;8692;52.164;7.558;2023-09-07T01:11:55;2.47;;;2.27;;
17153;SDS011;8692;52.164;7.558;2023-09-07T01:14:23;2.47;;;2.27;;
17153;SDS011;8692;52.164;7.558;2023-09-07T01:16:51;2.67;;;2.33;;
17153;SDS011;8692;52.164;7.558;2023-09-07T01:19:20;2.50;;;2.30;;
17153;SDS011;8692;52.164;7.558;2023-09-07T01:21:49;2.60;;;2.40;;
17153;SDS011;8692;52.164;7.558;2023-09-07T01:24:18;2.07;;;1.90;;
17153;SDS011;8692;52.164;7.558;2023-09-07T01:26:48;2.40;;;2.20;;
17153;SDS011;8692;52.164;7.558;2023-09-07T01:29:16;2.30;;;2.20;;
17153;SDS011;8692;52.164;7.558;2023-09-07T01:31:44;2.70;;;2.50;;
17153;SDS011;8692;52.164;7.558;2023-09-07T01:34:12;3.00;;;1.80;;
17153;SDS011;8692;52.164;7.558;2023-09-07T01:36:41;2.50;;;2.30;;
17153;SDS011;8692;52.164;7.558;2023-09-07T01:39:11;2.27;;;2.07;;
17153;SDS011;8692;52.164;7.558;2023-09-07T01:41:39;4.00;;;2.53;;
17153;SDS011;8692;52.164;7.558;2023-09-07T01:44:07;2.67;;;2.47;;
17153;SDS011;8692;52.164;7.558;2023-09-07T01:46:35;2.10;;;2.00;;
17153;SDS011;8692;52.164;7.558;2023-09-07T01:49:03;2.17;;;2.07;;
17153;SDS011;8692;52.164;7.558;2023-09-07T01:51:32;2.50;;;2.30;;
17153;SDS011;8692;52.164;7.558;2023-09-07T01:54:01;2.70;;;2.50;;
17153;SDS011;8692;52.164;7.558;2023-09-07T01:56:31;2.30;;;2.00;;
17153;SDS011;8692;52.164;7.558;2023-09-07T01:58:59;2.63;;;2.43;;
17153;SDS011;8692;52.164;7.558;2023-09-07T02:01:27;3.17;;;2.20;;
17153;SDS011;8692;52.164;7.558;2023-09-07T02:03:57;2.33;;;2.13;;
17153;SDS011;8692;52.164;7.558;2023-09-07T02:06:25;2.37;;;2.17;;
17153;SDS011;8692;52.164;7.558;2023-09-07T02:08:53;2.30;;;2.10;;
17153;SDS011;8692;52.164;7.558;2023-09-07T02:11:22;2.30;;;2.10;;
17153;SDS011;8692;52.164;7.558;2023-09-07T02:13:51;2.80;;;2.60;;
17153;SDS011;8692;52.164;7.558;2023-09-07T02:16:19;2.57;;;2.37;;
17153;SDS011;8692;52.164;7.558;2023-09-07T02:18:49;2.57;;;2.37;;
17153;SDS011;8692;52.164;7.558;2023-09-07T02:21:17;3.33;;;2.87;;
17153;SDS011;8692;52.164;7.558;2023-09-07T02:23:46;2.57;;;2.37;;
17153;SDS011;8692;52.164;7.558;2023-09-07T02:26:14;2.73;;;2.53;;
17153;SDS011;8692;52.164;7.558;2023-09-07T02:28:42;2.83;;;2.53;;
17153;SDS011;8692;52.164;7.558;2023-09-07T02:31:12;3.13;;;2.83;;
17153;SDS011;8692;52.164;7.558;2023-09-07T02:33:40;2.27;;;2.07;;
17153;SDS011;8692;52.164;7.558;2023-09-07T02:36:08;3.60;;;3.10;;
17153;SDS011;8692;52.164;7.558;2023-09-07T02:38:36;3.50;;;3.00;;
17153;SDS011;8692;52.164;7.558;2023-09-07T02:41:04;3.37;;;2.70;;
17153;SDS011;8692;52.164;7.558;2023-09-07T02:43:32;2.83;;;2.63;;
17153;SDS011;8692;52.164;7.558;2023-09-07T02:46:00;3.53;;;3.00;;
17153;SDS011;8692;52.164;7.558;2023-09-07T02:48:31;3.10;;;2.90;;
17153;SDS011;8692;52.164;7.558;2023-09-07T02:51:01;2.80;;;2.60;;
17153;SDS011;8692;52.164;7.558;2023-09-07T02:53:29;3.07;;;2.87;;
17153;SDS011;8692;52.164;7.558;2023-09-07T02:55:57;3.27;;;3.00;;
17153;SDS011;8692;52.164;7.558;2023-09-07T02:58:28;3.10;;;2.90;;
17153;SDS011;8692;52.164;7.558;2023-09-07T03:00:57;3.30;;;3.00;;
17153;SDS011;8692;52.164;7.558;2023-09-07T03:03:25;3.17;;;2.87;;
17153;SDS011;8692;52.164;7.558;2023-09-07T03:05:55;3.17;;;2.87;;
17153;SDS011;8692;52.164;7.558;2023-09-07T03:08:23;3.83;;;2.90;;
17153;SDS011;8692;52.164;7.558;2023-09-07T03:10:51;3.67;;;3.37;;
17153;SDS011;8692;52.164;7.558;2023-09-07T03:13:19;3.13;;;2.93;;
17153;SDS011;8692;52.164;7.558;2023-09-07T03:15:48;2.67;;;2.47;;
17153;SDS011;8692;52.164;7.558;2023-09-07T03:18:16;2.87;;;2.67;;
17153;SDS011;8692;52.164;7.558;2023-09-07T03:20:44;3.20;;;2.90;;
17153;SDS011;8692;52.164;7.558;2023-09-07T03:23:13;3.30;;;3.10;;
17153;SDS011;8692;52.164;7.558;2023-09-07T03:25:41;2.83;;;2.63;;
17153;SDS011;8692;52.164;7.558;2023-09-07T03:28:10;3.33;;;3.03;;
17153;SDS011;8692;52.164;7.558;2023-09-07T03:30:38;3.50;;;3.20;;
17153;SDS011;8692;52.164;7.558;2023-09-07T03:33:07;2.80;;;2.60;;
17153;SDS011;8692;52.164;7.558;2023-09-07T03:35:35;3.50;;;3.20;;
17153;SDS011;8692;52.164;7.558;2023-09-07T03:38:04;3.10;;;2.90;;
17153;SDS011;8692;52.164;7.558;2023-09-07T03:40:33;3.13;;;2.90;;
17153;SDS011;8692;52.164;7.558;2023-09-07T03:43:02;3.77;;;3.30;;
17153;SDS011;8692;52.164;7.558;2023-09-07T03:45:30;3.53;;;3.23;;
17153;SDS011;8692;52.164;7.558;2023-09-07T03:47:59;3.30;;;3.10;;
17153;SDS011;8692;52.164;7.558;2023-09-07T03:50:28;3.60;;;3.30;;
17153;SDS011;8692;52.164;7.558;2023-09-07T03:52:56;3.40;;;3.10;;
17153;SDS011;8692;52.164;7.558;2023-09-07T03:55:24;3.57;;;3.27;;
17153;SDS011;8692;52.164;7.558;2023-09-07T03:57:53;5.50;;;3.17;;
17153;SDS011;8692;52.164;7.558;2023-09-07T04:00:22;3.57;;;3.27;;
17153;SDS011;8692;52.164;7.558;2023-09-07T04:02:50;3.07;;;2.70;;
17153;SDS011;8692;52.164;7.558;2023-09-07T04:05:19;3.37;;;3.07;;
17153;SDS011;8692;52.164;7.558;2023-09-07T04:07:50;3.80;;;3.50;;
17153;SDS011;8692;52.164;7.558;2023-09-07T04:10:18;3.10;;;2.80;;
17153;SDS011;8692;52.164;7.558;2023-09-07T04:12:46;3.83;;;3.53;;
17153;SDS011;8692;52.164;7.558;2023-09-07T04:15:16;3.50;;;3.20;;
17153;SDS011;8692;52.164;7.558;2023-09-07T04:17:45;3.60;;;3.30;;
17153;SDS011;8692;52.164;7.558;2023-09-07T04:20:13;3.87;;;3.57;;
17153;SDS011;8692;52.164;7.558;2023-09-07T04:22:41;3.27;;;2.97;;
17153;SDS011;8692;52.164;7.558;2023-09-07T04:25:09;3.63;;;3.33;;
17153;SDS011;8692;52.164;7.558;2023-09-07T04:27:37;3.10;;;2.90;;
17153;SDS011;8692;52.164;7.558;2023-09-07T04:30:07;3.73;;;3.43;;
17153;SDS011;8692;52.164;7.558;2023-09-07T04:32:38;3.47;;;3.10;;
17153;SDS011;8692;52.164;7.558;2023-09-07T04:35:07;3.67;;;3.37;;
17153;SDS011;8692;52.164;7.558;2023-09-07T04:37:36;3.70;;;3.40;;
17153;SDS011;8692;52.164;7.558;2023-09-07T04:40:05;4.30;;;3.90;;
17153;SDS011;8692;52.164;7.558;2023-09-07T04:42:34;3.63;;;3.33;;
17153;SDS011;8692;52.164;7.558;2023-09-07T04:45:02;4.20;;;3.80;;
17153;SDS011;8692;52.164;7.558;2023-09-07T04:47:31;4.57;;;4.17;;
17153;SDS011;8692;52.164;7.558;2023-09-07T04:50:01;3.73;;;3.40;;
17153;SDS011;8692;52.164;7.558;2023-09-07T04:52:30;3.60;;;3.30;;
17153;SDS011;8692;52.164;7.558;2023-09-07T04:54:58;4.03;;;3.73;;
17153;SDS011;8692;52.164;7.558;2023-09-07T04:57:26;3.90;;;3.50;;
17153;SDS011;8692;52.164;7.558;2023-09-07T04:59:54;4.13;;;3.73;;
17153;SDS011;8692;52.164;7.558;2023-09-07T05:02:22;4.10;;;3.70;;
17153;SDS011;8692;52.164;7.558;2023-09-07T05:04:52;4.30;;;3.90;;
17153;SDS011;8692;52.164;7.558;2023-09-07T05:07:21;4.27;;;3.87;;
17153;SDS011;8692;52.164;7.558;2023-09-07T05:09:49;3.90;;;3.60;;
17153;SDS011;8692;52.164;7.558;2023-09-07T05:12:17;5.40;;;4.03;;
17153;SDS011;8692;52.164;7.558;2023-09-07T05:14:46;3.97;;;3.63;;
17153;SDS011;8692;52.164;7.558;2023-09-07T05:17:14;4.67;;;4.07;;
17153;SDS011;8692;52.164;7.558;2023-09-07T05:19:42;3.80;;;3.40;;
17153;SDS011;8692;52.164;7.558;2023-09-07T05:22:10;4.87;;;4.40;;
17153;SDS011;8692;52.164;7.558;2023-09-07T05:24:40;3.90;;;3.60;;
17153;SDS011;8692;52.164;7.558;2023-09-07T05:27:08;4.77;;;4.13;;
17153;SDS011;8692;52.164;7.558;2023-09-07T05:29:37;4.60;;;4.10;;
17153;SDS011;8692;52.164;7.558;2023-09-07T05:32:05;4.03;;;3.73;;
17153;SDS011;8692;52.164;7.558;2023-09-07T05:34:35;4.03;;;3.53;;
17153;SDS011;8692;52.164;7.558;2023-09-07T05:37:03;4.37;;;3.97;;
17153;SDS011;8692;52.164;7.558;2023-09-07T05:39:31;4.40;;;4.00;;
17153;SDS011;8692;52.164;7.558;2023-09-07T05:42:01;4.07;;;3.77;;
17153;SDS011;8692;52.164;7.558;2023-09-07T05:44:29;3.73;;;3.43;;
17153;SDS011;8692;52.164;7.558;2023-09-07T05:46:57;5.00;;;3.57;;
17153;SDS011;8692;52.164;7.558;2023-09-07T05:49:26;3.97;;;3.67;;
17153;SDS011;8692;52.164;7.558;2023-09-07T05:51:54;4.23;;;3.83;;
17153;SDS011;8692;52.164;7.558;2023-09-07T05:54:23;5.10;;;4.30;;
17153;SDS011;8692;52.164;7.558;2023-09-07T05:56:51;4.07;;;3.67;;
17153;SDS011;8692;52.164;7.558;2023-09-07T05:59:20;3.93;;;3.53;;
17153;SDS011;8692;52.164;7.558;2023-09-07T06:01:48;4.30;;;3.70;;
17153;SDS011;8692;52.164;7.558;2023-09-07T06:04:17;4.20;;;3.90;;
17153;SDS011;8692;52.164;7.558;2023-09-07T06:06:45;4.53;;;3.93;;
17153;SDS011;8692;52.164;7.558;2023-09-07T06:09:13;5.43;;;3.87;;
17153;SDS011;8692;52.164;7.558;2023-09-07T06:11:41;4.30;;;3.90;;
17153;SDS011;8692;52.164;7.558;2023-09-07T06:14:09;4.97;;;4.47;;
17153;SDS011;8692;52.164;7.558;2023-09-07T06:16:39;4.37;;;3.70;;
17153;SDS011;8692;52.164;7.558;2023-09-07T06:19:08;3.90;;;3.60;;
17153;SDS011;8692;52.164;7.558;2023-09-07T06:21:36;5.97;;;4.40;;
17153;SDS011;8692;52.164;7.558;2023-09-07T06:24:05;5.37;;;4.23;;
17153;SDS011;8692;52.164;7.558;2023-09-07T06:26:33;5.27;;;4.77;;
17153;SDS011;8692;52.164;7.558;2023-09-07T06:29:03;4.97;;;3.93;;
17153;SDS011;8692;52.164;7.558;2023-09-07T06:31:31;5.40;;;4.30;;
17153;SDS011;8692;52.164;7.558;2023-09-07T06:34:01;4.70;;;4.17;;
17153;SDS011;8692;52.164;7.558;2023-09-07T06:36:30;6.57;;;4.87;;
17153;SDS011;8692;52.164;7.558;2023-09-07T06:39:12;5.93;;;5.27;;
17153;SDS011;8692;52.164;7.558;2023-09-07T06:41:41;5.23;;;4.57;;
17153;SDS011;8692;52.164;7.558;2023-09-07T06:44:09;5.37;;;4.87;;
17153;SDS011;8692;52.164;7.558;2023-09-07T06:46:37;5.80;;;4.70;;
17153;SDS011;8692;52.164;7.558;2023-09-07T06:49:07;5.93;;;4.60;;
17153;SDS011;8692;52.164;7.558;2023-09-07T06:51:35;5.77;;;4.63;;
17153;SDS011;8692;52.164;7.558;2023-09-07T06:54:04;6.97;;;4.33;;
17153;SDS011;8692;52.164;7.558;2023-09-07T06:56:33;5.27;;;4.47;;
17153;SDS011;8692;52.164;7.558;2023-09-07T06:59:01;5.03;;;4.40;;
17153;SDS011;8692;52.164;7.558;2023-09-07T07:01:30;11.27;;;4.93;;
17153;SDS011;8692;52.164;7.558;2023-09-07T07:03:58;4.60;;;4.17;;
17153;SDS011;8692;52.164;7.558;2023-09-07T07:06:28;5.03;;;4.10;;
17153;SDS011;8692;52.164;7.558;2023-09-07T07:08:56;6.43;;;4.40;;
17153;SDS011;8692;52.164;7.558;2023-09-07T07:11:26;5.80;;;4.20;;
17153;SDS011;8692;52.164;7.558;2023-09-07T07:13:54;4.63;;;4.20;;
17153;SDS011;8692;52.164;7.558;2023-09-07T07:16:23;5.10;;;4.60;;
17153;SDS011;8692;52.164;7.558;2023-09-07T07:18:51;4.13;;;3.73;;
17153;SDS011;8692;52.164;7.558;2023-09-07T07:21:19;6.57;;;4.70;;
17153;SDS011;8692;52.164;7.558;2023-09-07T07:23:49;6.20;;;4.40;;
17153;SDS011;8692;52.164;7.558;2023-09-07T07:26:17;6.33;;;4.50;;
17153;SDS011;8692;52.164;7.558;2023-09-07T07:28:46;4.97;;;4.43;;
17153;SDS011;8692;52.164;7.558;2023-09-07T07:31:17;5.27;;;4.77;;
17153;SDS011;8692;52.164;7.558;2023-09-07T07:33:46;5.30;;;4.00;;
17153;SDS011;8692;52.164;7.558;2023-09-07T07:36:15;8.50;;;4.50;;
17153;SDS011;8692;52.164;7.558;2023-09-07T07:38:44;8.43;;;4.93;;
17153;SDS011;8692;52.164;7.558;2023-09-07T07:41:14;4.07;;;3.67;;
17153;SDS011;8692;52.164;7.558;2023-09-07T07:43:42;4.93;;;3.83;;
17153;SDS011;8692;52.164;7.558;2023-09-07T07:46:10;5.57;;;3.97;;
17153;SDS011;8692;52.164;7.558;2023-09-07T07:48:43;4.73;;;3.83;;
17153;SDS011;8692;52.164;7.558;2023-09-07T07:51:11;5.80;;;4.50;;
17153;SDS011;8692;52.164;7.558;2023-09-07T07:53:41;4.93;;;3.90;;
17153;SDS011;8692;52.164;7.558;2023-09-07T07:56:18;5.77;;;4.00;;
17153;SDS011;8692;52.164;7.558;2023-09-07T07:58:49;4.57;;;4.07;;
17153;SDS011;8692;52.164;7.558;2023-09-07T08:01:19;6.27;;;4.50;;
17153;SDS011;8692;52.164;7.558;2023-09-07T08:03:50;5.33;;;4.30;;
17153;SDS011;8692;52.164;7.558;2023-09-07T08:06:19;5.27;;;3.90;;
17153;SDS011;8692;52.164;7.558;2023-09-07T08:08:47;5.57;;;3.90;;
17153;SDS011;8692;52.164;7.558;2023-09-07T08:11:17;6.00;;;3.67;;
17153;SDS011;8692;52.164;7.558;2023-09-07T08:13:48;7.07;;;4.20;;
17153;SDS011;8692;52.164;7.558;2023-09-07T08:16:16;5.23;;;3.90;;
17153;SDS011;8692;52.164;7.558;2023-09-07T08:18:45;4.70;;;4.30;;
17153;SDS011;8692;52.164;7.558;2023-09-07T08:21:14;4.97;;;4.10;;
17153;SDS011;8692;52.164;7.558;2023-09-07T08:23:43;6.30;;;4.30;;
17153;SDS011;8692;52.164;7.558;2023-09-07T08:26:12;6.38;;;4.20;;
17153;SDS011;8692;52.164;7.558;2023-09-07T08:28:44;4.85;;;4.35;;
17153;SDS011;8692;52.164;7.558;2023-09-07T08:31:12;5.17;;;4.37;;
17153;SDS011;8692;52.164;7.558;2023-09-07T08:33:48;7.07;;;4.78;;
17153;SDS011;8692;52.164;7.558;2023-09-07T08:36:17;5.63;;;4.38;;
17153;SDS011;8692;52.164;7.558;2023-09-07T08:38:49;5.33;;;4.30;;
17153;SDS011;8692;52.164;7.558;2023-09-07T08:41:19;7.03;;;4.23;;
17153;SDS011;8692;52.164;7.558;2023-09-07T08:43:49;5.37;;;4.23;;
17153;SDS011;8692;52.164;7.558;2023-09-07T08:46:21;5.95;;;4.10;;
17153;SDS011;8692;52.164;7.558;2023-09-07T08:48:51;5.07;;;4.07;;
17153;SDS011;8692;52.164;7.558;2023-09-07T08:51:22;6.43;;;4.15;;
17153;SDS011;8692;52.164;7.558;2023-09-07T08:53:54;6.38;;;4.38;;
17153;SDS011;8692;52.164;7.558;2023-09-07T08:56:22;6.03;;;3.38;;
17153;SDS011;8692;52.164;7.558;2023-09-07T08:58:52;3.47;;;3.17;;
17153;SDS011;8692;52.164;7.558;2023-09-07T09:01:20;5.65;;;3.97;;
17153;SDS011;8692;52.164;7.558;2023-09-07T09:03:48;4.25;;;3.80;;
17153;SDS011;8692;52.164;7.558;2023-09-07T09:06:18;5.45;;;4.03;;
17153;SDS011;8692;52.164;7.558;2023-09-07T09:08:48;5.18;;;3.80;;
17153;SDS011;8692;52.164;7.558;2023-09-07T09:11:18;5.97;;;3.30;;
17153;SDS011;8692;52.164;7.558;2023-09-07T09:13:48;4.82;;;3.78;;
17153;SDS011;8692;52.164;7.558;2023-09-07T09:16:18;3.63;;;3.08;;
17153;SDS011;8692;52.164;7.558;2023-09-07T09:18:47;4.05;;;3.50;;
17153;SDS011;8692;52.164;7.558;2023-09-07T09:21:18;8.98;;;4.00;;
17153;SDS011;8692;52.164;7.558;2023-09-07T09:23:47;5.07;;;3.55;;
17153;SDS011;8692;52.164;7.558;2023-09-07T09:26:17;6.35;;;3.25;;
17153;SDS011;8692;52.164;7.558;2023-09-07T09:28:45;5.03;;;3.70;;
17153;SDS011;8692;52.164;7.558;2023-09-07T09:31:13;4.15;;;3.10;;
17153;SDS011;8692;52.164;7.558;2023-09-07T09:33:47;5.60;;;3.95;;
17153;SDS011;8692;52.164;7.558;2023-09-07T09:36:17;4.40;;;3.28;;
17153;SDS011;8692;52.164;7.558;2023-09-07T09:38:47;4.70;;;3.30;;
17153;SDS011;8692;52.164;7.558;2023-09-07T09:41:17;3.92;;;3.58;;
17153;SDS011;8692;52.164;7.558;2023-09-07T09:43:45;3.78;;;3.47;;
17153;SDS011;8692;52.164;7.558;2023-09-07T09:46:15;4.10;;;3.70;;
17153;SDS011;8692;52.164;7.558;2023-09-07T09:48:45;5.93;;;3.60;;
17153;SDS011;8692;52.164;7.558;2023-09-07T09:51:14;4.90;;;3.55;;
17153;SDS011;8692;52.164;7.558;2023-09-07T09:53:42;5.15;;;3.45;;
17153;SDS011;8692;52.164;7.558;2023-09-07T09:56:11;7.03;;;3.72;;
17153;SDS011;8692;52.164;7.558;2023-09-07T09:58:39;4.70;;;3.47;;
17153;SDS011;8692;52.164;7.558;2023-09-07T10:01:07;3.38;;;3.05;;
17153;SDS011;8692;52.164;7.558;2023-09-07T10:03:41;4.78;;;3.10;;
17153;SDS011;8692;52.164;7.558;2023-09-07T10:06:19;3.70;;;3.40;;
17153;SDS011;8692;52.164;7.558;2023-09-07T10:08:53;4.40;;;3.47;;
17153;SDS011;8692;52.164;7.558;2023-09-07T10:11:29;4.22;;;3.22;;
17153;SDS011;8692;52.164;7.558;2023-09-07T10:13:58;4.93;;;3.30;;
17153;SDS011;8692;52.164;7.558;2023-09-07T10:16:27;6.22;;;3.50;;
17153;SDS011;8692;52.164;7.558;2023-09-07T10:18:55;5.40;;;3.45;;
17153;SDS011;8692;52.164;7.558;2023-09-07T10:21:25;4.78;;;3.30;;
17153;SDS011;8692;52.164;7.558;2023-09-07T10:23:53;4.22;;;3.13;;
17153;SDS011;8692;52.164;7.558;2023-09-07T10:26:21;3.75;;;3.40;;
17153;SDS011;8692;52.164;7.558;2023-09-07T10:28:58;5.80;;;3.35;;
17153;SDS011;8692;52.164;7.558;2023-09-07T10:31:30;3.33;;;2.83;;
17153;SDS011;8692;52.164;7.558;2023-09-07T10:34:18;4.55;;;3.38;;
17153;SDS011;8692;52.164;7.558;2023-09-07T10:36:48;5.68;;;3.35;;
17153;SDS011;8692;52.164;7.558;2023-09-07T10:39:23;4.47;;;3.20;;
17153;SDS011;8692;52.164;7.558;2023-09-07T10:41:55;7.65;;;3.83;;
17153;SDS011;8692;52.164;7.558;2023-09-07T10:44:26;3.80;;;3.10;;
17153;SDS011;8692;52.164;7.558;2023-09-07T10:46:55;3.55;;;3.25;;
17153;SDS011;8692;52.164;7.558;2023-09-07T10:49:24;3.92;;;3.50;;
17153;SDS011;8692;52.164;7.558;2023-09-07T10:51:54;4.57;;;3.30;;
17153;SDS011;8692;52.164;7.558;2023-09-07T10:54:22;5.88;;;3.60;;
17153;SDS011;8692;52.164;7.558;2023-09-07T10:56:51;4.00;;;3.00;;
17153;SDS011;8692;52.164;7.558;2023-09-07T10:59:24;3.45;;;3.10;;
17153;SDS011;8692;52.164;7.558;2023-09-07T11:01:55;4.82;;;3.30;;
17153;SDS011;8692;52.164;7.558;2023-09-07T11:04:31;11.85;;;3.30;;
17153;SDS011;8692;52.164;7.558;2023-09-07T11:07:01;3.75;;;3.05;;
17153;SDS011;8692;52.164;7.558;2023-09-07T11:09:30;4.75;;;3.30;;
17153;SDS011;8692;52.164;7.558;2023-09-07T11:12:03;3.72;;;2.97;;
17153;SDS011;8692;52.164;7.558;2023-09-07T11:14:31;4.30;;;2.92;;
17153;SDS011;8692;52.164;7.558;2023-09-07T11:17:00;3.38;;;3.00;;
17153;SDS011;8692;52.164;7.558;2023-09-07T11:19:31;3.35;;;2.88;;
17153;SDS011;8692;52.164;7.558;2023-09-07T11:22:01;5.47;;;2.83;;
17153;SDS011;8692;52.164;7.558;2023-09-07T11:24:31;4.78;;;3.50;;
17153;SDS011;8692;52.164;7.558;2023-09-07T11:27:00;4.00;;;3.20;;
17153;SDS011;8692;52.164;7.558;2023-09-07T11:29:31;3.92;;;2.95;;
17153;SDS011;8692;52.164;7.558;2023-09-07T11:32:05;3.35;;;3.05;;
17153;SDS011;8692;52.164;7.558;2023-09-07T11:34:34;3.60;;;3.30;;
17153;SDS011;8692;52.164;7.558;2023-09-07T11:37:03;6.30;;;3.10;;
17153;SDS011;8692;52.164;7.558;2023-09-07T11:39:31;3.40;;;3.10;;
17153;SDS011;8692;52.164;7.558;2023-09-07T11:41:59;4.75;;;3.30;;
17153;SDS011;8692;52.164;7.558;2023-09-07T11:44:27;4.10;;;3.70;;
17153;SDS011;8692;52.164;7.558;2023-09-07T11:46:55;3.92;;;3.33;;
17153;SDS011;8692;52.164;7.558;2023-09-07T11:49:23;4.00;;;3.60;;
17153;SDS011;8692;52.164;7.558;2023-09-07T11:51:52;11.65;;;3.15;;
17153;SDS011;8692;52.164;7.558;2023-09-07T11:54:21;5.72;;;3.10;;
17153;SDS011;8692;52.164;7.558;2023-09-07T11:56:49;4.10;;;2.83;;
17153;SDS011;8692;52.164;7.558;2023-09-07T11:59:17;3.55;;;2.92;;
17153;SDS011;8692;52.164;7.558;2023-09-07T12:01:45;3.00;;;2.80;;
17153;SDS011;8692;52.164;7.558;2023-09-07T12:04:13;3.25;;;2.95;;
17153;SDS011;8692;52.164;7.558;2023-09-07T12:06:41;2.83;;;2.58;;
17153;SDS011;8692;52.164;7.558;2023-09-07T12:09:10;3.88;;;3.08;;
17153;SDS011;8692;52.164;7.558;2023-09-07T12:11:39;2.92;;;2.63;;
17153;SDS011;8692;52.164;7.558;2023-09-07T12:14:08;4.75;;;2.97;;
17153;SDS011;8692;52.164;7.558;2023-09-07T12:16:36;3.30;;;3.00;;
17153;SDS011;8692;52.164;7.558;2023-09-07T12:19:04;3.92;;;3.10;;
17153;SDS011;8692;52.164;7.558;2023-09-07T12:21:33;3.85;;;3.20;;
17153;SDS011;8692;52.164;7.558;2023-09-07T12:24:01;3.58;;;3.05;;
17153;SDS011;8692;52.164;7.558;2023-09-07T12:26:29;3.13;;;2.83;;
17153;SDS011;8692;52.164;7.558;2023-09-07T12:28:58;3.05;;;2.80;;
17153;SDS011;8692;52.164;7.558;2023-09-07T12:31:26;2.90;;;2.70;;
17153;SDS011;8692;52.164;7.558;2023-09-07T12:33:54;3.13;;;2.90;;
17153;SDS011;8692;52.164;7.558;2023-09-07T12:36:23;3.78;;;3.45;;
17153;SDS011;8692;52.164;7.558;2023-09-07T12:38:51;6.22;;;2.70;;
17153;SDS011;8692;52.164;7.558;2023-09-07T12:41:20;3.00;;;2.80;;
17153;SDS011;8692;52.164;7.558;2023-09-07T12:43:48;3.47;;;2.70;;
17153;SDS011;8692;52.164;7.558;2023-09-07T12:46:17;4.70;;;2.90;;
17153;SDS011;8692;52.164;7.558;2023-09-07T12:48:45;4.40;;;2.70;;
17153;SDS011;8692;52.164;7.558;2023-09-07T12:51:13;4.55;;;2.67;;
17153;SDS011;8692;52.164;7.558;2023-09-07T12:53:42;3.95;;;2.92;;
17153;SDS011;8692;52.164;7.558;2023-09-07T12:56:10;4.53;;;2.90;;
17153;SDS011;8692;52.164;7.558;2023-09-07T12:58:39;3.78;;;2.72;;
17153;SDS011;8692;52.164;7.558;2023-09-07T13:01:07;2.72;;;2.53;;
17153;SDS011;8692;52.164;7.558;2023-09-07T13:03:38;3.20;;;2.75;;
17153;SDS011;8692;52.164;7.558;2023-09-07T13:06:06;3.53;;;3.20;;
17153;SDS011;8692;52.164;7.558;2023-09-07T13:08:34;2.83;;;2.63;;
17153;SDS011;8692;52.164;7.558;2023-09-07T13:11:02;4.95;;;2.42;;
17153;SDS011;8692;52.164;7.558;2023-09-07T13:13:30;3.22;;;2.92;;
17153;SDS011;8692;52.164;7.558;2023-09-07T13:15:58;3.45;;;2.80;;
17153;SDS011;8692;52.164;7.558;2023-09-07T13:18:27;3.20;;;2.90;;
17153;SDS011;8692;52.164;7.558;2023-09-07T13:20:56;3.60;;;2.85;;
17153;SDS011;8692;52.164;7.558;2023-09-07T13:23:26;5.50;;;3.17;;
17153;SDS011;8692;52.164;7.558;2023-09-07T13:25:54;3.58;;;3.10;;
17153;SDS011;8692;52.164;7.558;2023-09-07T13:28:23;4.13;;;3.22;;
17153;SDS011;8692;52.164;7.558;2023-09-07T13:30:51;3.38;;;3.08;;
17153;SDS011;8692;52.164;7.558;2023-09-07T13:33:19;4.15;;;3.63;;
17153;SDS011;8692;52.164;7.558;2023-09-07T13:35:47;3.25;;;2.95;;
17153;SDS011;8692;52.164;7.558;2023-09-07T13:38:16;4.05;;;3.25;;
17153;SDS011;8692;52.164;7.558;2023-09-07T13:40:44;5.80;;;3.05;;
17153;SDS011;8692;52.164;7.558;2023-09-07T13:43:12;5.85;;;3.30;;
17153;SDS011;8692;52.164;7.558;2023-09-07T13:45:40;3.70;;;3.13;;
17153;SDS011;8692;52.164;7.558;2023-09-07T13:48:10;3.75;;;2.92;;
17153;SDS011;8692;52.164;7.558;2023-09-07T13:50:38;6.15;;;3.15;;
17153;SDS011;8692;52.164;7.558;2023-09-07T13:53:06;3.30;;;3.10;;
17153;SDS011;8692;52.164;7.558;2023-09-07T13:55:36;3.72;;;3.22;;
17153;SDS011;8692;52.164;7.558;2023-09-07T13:58:06;4.82;;;3.30;;
17153;SDS011;8692;52.164;7.558;2023-09-07T14:00:34;3.75;;;3.22;;
17153;SDS011;8692;52.164;7.558;2023-09-07T14:03:02;4.85;;;3.38;;
17153;SDS011;8692;52.164;7.558;2023-09-07T14:05:30;3.78;;;3.33;;
17153;SDS011;8692;52.164;7.558;2023-09-07T14:07:58;4.28;;;3.25;;
17153;SDS011;8692;52.164;7.558;2023-09-07T14:10:26;4.40;;;3.03;;
17153;SDS011;8692;52.164;7.558;2023-09-07T14:12:56;5.40;;;3.22;;
17153;SDS011;8692;52.164;7.558;2023-09-07T14:15:24;3.50;;;3.20;;
17153;SDS011;8692;52.164;7.558;2023-09-07T14:17:52;3.72;;;2.83;;
17153;SDS011;8692;52.164;7.558;2023-09-07T14:20:20;5.97;;;3.15;;
17153;SDS011;8692;52.164;7.558;2023-09-07T14:22:48;5.57;;;3.10;;
17153;SDS011;8692;52.164;7.558;2023-09-07T14:25:16;5.53;;;2.90;;
17153;SDS011;8692;52.164;7.558;2023-09-07T14:27:48;3.40;;;3.10;;
17153;SDS011;8692;52.164;7.558;2023-09-07T14:30:18;3.13;;;2.92;;
17153;SDS011;8692;52.164;7.558;2023-09-07T14:32:46;3.90;;;3.17;;
17153;SDS011;8692;52.164;7.558;2023-09-07T14:35:15;2.90;;;2.70;;
17153;SDS011;8692;52.164;7.558;2023-09-07T14:37:43;4.72;;;3.10;;
17153;SDS011;8692;52.164;7.558;2023-09-07T14:40:11;3.30;;;3.00;;
17153;SDS011;8692;52.164;7.558;2023-09-07T14:42:40;3.30;;;3.00;;
17153;SDS011;8692;52.164;7.558;2023-09-07T14:45:08;5.63;;;2.92;;
17153;SDS011;8692;52.164;7.558;2023-09-07T14:47:38;5.20;;;3.15;;
17153;SDS011;8692;52.164;7.558;2023-09-07T14:50:06;2.90;;;2.70;;
17153;SDS011;8692;52.164;7.558;2023-09-07T14:52:35;3.50;;;2.75;;
17153;SDS011;8692;52.164;7.558;2023-09-07T14:55:07;4.28;;;2.65;;
17153;SDS011;8692;52.164;7.558;2023-09-07T14:57:35;3.88;;;3.08;;
17153;SDS011;8692;52.164;7.558;2023-09-07T15:00:04;3.35;;;2.80;;
17153;SDS011;8692;52.164;7.558;2023-09-07T15:02:33;5.88;;;3.08;;
17153;SDS011;8692;52.164;7.558;2023-09-07T15:05:02;5.13;;;2.90;;
17153;SDS011;8692;52.164;7.558;2023-09-07T15:07:31;5.55;;;3.47;;
17153;SDS011;8692;52.164;7.558;2023-09-07T15:09:59;3.22;;;2.97;;
17153;SDS011;8692;52.164;7.558;2023-09-07T15:12:27;5.05;;;2.97;;